Time;durP1;ratioP1;P1;durP2;ratioP2;P2;SDS_P1;SDS_P2;PMS_P1;PMS_P2;Temp;Humidity;BMP_temperature;BMP_pressure;BME280_temperature;BME280_humidity;BME280_pressure;Samples;Min_cycle;Max_cycle;Signal;HPM_P1;HPM_P2
2022/06/01 00:00:00;;;;;;;;;2.00;2.00;;;;;16.29;46.28;100794.81;6231131;22;46772;-85
2022/06/01 00:03:23;;;;;;;;;3.00;3.00;;;;;16.34;46.66;100797.47;6231132;22;44788;-85
2022/06/01 00:05:50;;;;;;;;;3.00;3.00;;;;;16.25;46.96;100781.44;6232588;22;45534;-85
2022/06/01 00:08:16;;;;;;;;;2.00;2.00;;;;;16.29;46.61;100792.13;6231962;22;45292;-85
2022/06/01 00:10:41;;;;;;;;;4.00;3.33;;;;;16.22;46.71;100777.00;6231420;22;45823;-85
2022/06/01 00:13:07;;;;;;;;;3.00;3.00;;;;;16.25;46.51;100785.00;6232155;22;44898;-85
2022/06/01 00:15:33;;;;;;;;;3.00;2.00;;;;;16.24;46.76;100785.94;6232151;22;44795;-85
2022/06/01 00:18:00;;;;;;;;;3.00;3.00;;;;;16.24;46.97;100801.13;6230526;22;44674;-84
2022/06/01 00:20:31;;;;;;;;;2.00;2.00;;;;;16.25;46.85;100792.19;6229702;22;45030;-85
2022/06/01 00:22:57;;;;;;;;;3.00;2.00;;;;;16.18;46.96;100792.25;6227001;22;45275;-86
2022/06/01 00:25:24;;;;;;;;;2.33;2.33;;;;;16.19;46.99;100796.69;6203704;22;44917;-84
2022/06/01 00:27:53;;;;;;;;;3.33;3.33;;;;;16.13;47.19;100794.06;6204398;22;44869;-85
2022/06/01 00:30:20;;;;;;;;;2.00;2.00;;;;;16.13;46.72;100793.16;6231901;22;45147;-85
2022/06/01 00:32:46;;;;;;;;;5.00;4.00;;;;;16.13;47.19;100791.38;6204141;22;45436;-84
2022/06/01 00:35:14;;;;;;;;;4.00;4.00;;;;;16.14;47.37;100801.22;6231892;22;44665;-85
2022/06/01 00:37:40;;;;;;;;;3.00;3.00;;;;;16.13;47.85;100799.41;6203680;22;45368;-85
2022/06/01 00:40:07;;;;;;;;;1.67;1.67;;;;;16.12;47.77;100804.81;6231510;22;45237;-85
2022/06/01 00:42:35;;;;;;;;;2.33;2.33;;;;;16.11;47.95;100795.88;6228665;22;45271;-84
2022/06/01 00:45:06;;;;;;;;;4.00;2.67;;;;;16.06;48.09;100792.34;6229601;22;44780;-87
2022/06/01 00:47:31;;;;;;;;;3.00;3.00;;;;;16.09;48.06;100803.03;6228979;22;45504;-85
2022/06/01 00:50:21;;;;;;;;;3.00;3.00;;;;;16.10;48.24;100787.84;6229144;22;46830;-87
2022/06/01 00:52:59;;;;;;;;;3.00;3.00;;;;;16.02;48.39;100785.22;6232277;22;45116;-86
2022/06/01 00:55:32;;;;;;;;;3.00;3.00;;;;;16.06;48.61;100797.72;6230822;22;45415;-86
2022/06/01 00:58:21;;;;;;;;;4.67;3.00;;;;;16.04;48.78;100799.50;6231456;22;44842;-85
2022/06/01 01:00:49;;;;;;;;;3.00;3.00;;;;;15.95;48.77;100784.34;6228614;22;47245;-86
2022/06/01 01:03:15;;;;;;;;;6.00;3.00;;;;;15.99;48.78;100790.59;6229719;22;44943;-85
2022/06/01 01:05:47;;;;;;;;;4.33;3.33;;;;;15.96;48.83;100791.50;6231712;22;45410;-86
2022/06/01 01:08:13;;;;;;;;;3.00;3.00;;;;;15.88;48.70;100785.31;6231333;22;45255;-84
2022/06/01 01:10:39;;;;;;;;;3.00;3.00;;;;;15.85;49.11;100790.69;6202893;22;46899;-86
2022/06/01 01:13:08;;;;;;;;;5.00;3.67;;;;;15.81;49.39;100778.19;6229438;22;45315;-86
2022/06/01 01:15:54;;;;;;;;;3.00;3.00;;;;;15.85;49.24;100787.13;6229113;22;45323;-84
2022/06/01 01:18:29;;;;;;;;;3.67;3.00;;;;;15.82;49.21;100782.69;6203465;22;45151;-85
2022/06/01 01:21:03;;;;;;;;;4.00;4.00;;;;;15.87;49.24;100788.00;6230142;22;45241;-85
2022/06/01 01:23:49;;;;;;;;;4.67;4.67;;;;;15.82;49.45;100781.78;6228009;22;45220;-85
2022/06/01 01:26:15;;;;;;;;;5.00;4.33;;;;;15.72;49.72;100783.59;6229207;22;44703;-85
2022/06/01 01:28:41;;;;;;;;;4.33;3.33;;;;;15.70;49.81;100780.94;6230035;22;45219;-85
2022/06/01 01:31:17;;;;;;;;;3.00;3.00;;;;;15.67;49.72;100778.25;6231451;22;45399;-84
2022/06/01 01:33:44;;;;;;;;;2.67;2.00;;;;;15.70;49.87;100786.28;6230008;22;45333;-84
2022/06/01 01:36:12;;;;;;;;;4.67;4.00;;;;;15.65;49.92;100779.16;6205620;22;45385;-85
2022/06/01 01:38:44;;;;;;;;;7.00;4.67;;;;;15.64;50.33;100783.66;6232776;22;45167;-84
2022/06/01 01:41:19;;;;;;;;;2.00;2.00;;;;;15.61;50.10;100789.00;6230686;22;45240;-85
2022/06/01 01:43:52;;;;;;;;;6.00;4.33;;;;;15.55;50.56;100783.69;6230540;22;45478;-85
2022/06/01 01:46:17;;;;;;;;;4.00;4.00;;;;;15.56;50.33;100793.53;6231340;22;45351;-85
2022/06/01 01:48:42;;;;;;;;;4.67;4.00;;;;;15.55;50.51;100797.09;6232282;22;45452;-85
2022/06/01 01:51:08;;;;;;;;;4.00;3.00;;;;;15.55;50.70;100797.09;6205420;22;46868;-85
2022/06/01 01:53:36;;;;;;;;;4.00;4.00;;;;;15.57;50.73;100792.63;6204757;22;45460;-85
2022/06/01 01:56:28;;;;;;;;;3.00;3.00;;;;;15.51;50.70;100787.28;6205120;22;45322;-84
2022/06/01 01:59:15;;;;;;;;;4.00;4.00;;;;;15.53;51.03;100780.13;6232889;22;45635;-85
2022/06/01 02:01:54;;;;;;;;;4.00;4.00;;;;;15.47;51.14;100780.16;6232370;22;45455;-85
2022/06/01 02:07:37;;;;;;;;;3.00;3.00;;;;;15.31;51.25;100765.94;6226543;22;44772;-84
2022/06/01 02:12:56;;;;;;;;;5.33;4.00;;;;;15.13;51.42;100749.09;6232218;22;45511;-85
2022/06/01 02:15:33;;;;;;;;;3.67;3.67;;;;;15.34;51.43;100774.88;6229877;22;45327;-86
2022/06/01 02:18:08;;;;;;;;;3.00;3.00;;;;;15.30;51.57;100769.53;6231625;22;45308;-85
2022/06/01 02:20:41;;;;;;;;;3.33;3.33;;;;;15.13;51.82;100742.84;6229333;22;44842;-86
2022/06/01 02:23:13;;;;;;;;;3.00;3.00;;;;;15.23;52.05;100770.47;6203901;22;47649;-86
2022/06/01 02:25:42;;;;;;;;;2.67;2.67;;;;;15.11;52.10;100744.63;6202817;22;45315;-86
2022/06/01 02:28:07;;;;;;;;;4.00;3.00;;;;;15.24;52.20;100773.13;6203861;22;45387;-86
2022/06/01 02:30:39;;;;;;;;;4.00;4.00;;;;;15.22;52.48;100760.66;6206330;22;45280;-86
2022/06/01 02:33:08;;;;;;;;;5.33;3.67;;;;;15.19;52.36;100766.94;6207303;22;47244;-85
2022/06/01 02:35:38;;;;;;;;;3.67;3.00;;;;;15.16;52.90;100770.47;6234018;22;45567;-85
2022/06/01 02:38:14;;;;;;;;;3.67;3.67;;;;;15.09;52.54;100757.13;6233904;22;45448;-85
2022/06/01 02:40:39;;;;;;;;;3.67;3.67;;;;;14.98;52.75;100754.50;6207894;22;44848;-85
2022/06/01 02:43:05;;;;;;;;;4.00;4.00;;;;;14.97;52.52;100753.63;6233951;22;47192;-85
2022/06/01 02:45:31;;;;;;;;;5.00;3.67;;;;;14.86;52.85;100742.03;6231548;22;44670;-85
2022/06/01 02:47:59;;;;;;;;;3.67;3.67;;;;;14.82;52.61;100729.56;6233465;22;45377;-85
2022/06/01 02:50:28;;;;;;;;;4.00;4.00;;;;;14.80;52.78;100734.03;6231386;22;45428;-85
2022/06/01 02:52:54;;;;;;;;;5.33;4.33;;;;;15.00;52.96;100761.63;6206366;22;46652;-85
2022/06/01 02:55:22;;;;;;;;;3.33;3.33;;;;;14.87;53.22;100749.19;6231395;22;45022;-87
2022/06/01 02:57:49;;;;;;;;;5.00;4.00;;;;;14.80;53.60;100750.09;6233354;22;45159;-85
2022/06/01 03:00:18;;;;;;;;;4.00;4.00;;;;;14.71;53.74;100739.44;6206705;22;45407;-85
2022/06/01 03:02:47;;;;;;;;;4.00;4.00;;;;;14.72;53.84;100734.03;6205398;22;45334;-85
2022/06/01 03:05:15;;;;;;;;;4.33;3.00;;;;;14.78;53.97;100736.72;6205831;22;44814;-85
2022/06/01 03:07:44;;;;;;;;;4.00;4.00;;;;;14.61;53.80;100717.13;6230253;22;45329;-85
2022/06/01 03:10:09;;;;;;;;;4.00;4.00;;;;;14.62;54.03;100732.28;6233921;22;44717;-84
2022/06/01 03:12:37;;;;;;;;;3.00;3.00;;;;;14.74;53.99;100745.63;6231934;22;46995;-84
2022/06/01 03:15:11;;;;;;;;;5.33;4.00;;;;;14.78;54.11;100762.59;6208419;22;45362;-85
2022/06/01 03:17:37;;;;;;;;;4.00;4.00;;;;;14.69;53.87;100762.63;6209458;22;44712;-85
2022/06/01 03:20:08;;;;;;;;;3.00;3.00;;;;;14.60;54.56;100751.06;6231762;22;44809;-85
2022/06/01 03:22:39;;;;;;;;;5.00;4.67;;;;;14.58;54.53;100749.25;6231362;22;45377;-85
2022/06/01 03:25:08;;;;;;;;;4.00;4.00;;;;;14.71;54.72;100777.78;6232074;22;45355;-85
2022/06/01 03:27:35;;;;;;;;;2.33;2.33;;;;;14.69;54.82;100770.66;6207854;22;45284;-85
2022/06/01 03:30:01;;;;;;;;;3.33;3.33;;;;;14.60;55.29;100764.44;6205161;22;45454;-85
2022/06/01 03:32:26;;;;;;;;;5.67;3.67;;;;;14.64;54.75;100777.78;6231585;22;46910;-86
2022/06/01 03:34:52;;;;;;;;;4.00;4.00;;;;;14.54;54.64;100774.22;6232032;22;45739;-85
2022/06/01 03:37:19;;;;;;;;;4.00;4.00;;;;;14.58;54.97;100774.25;6234152;22;44786;-85
2022/06/01 03:39:44;;;;;;;;;6.33;5.33;;;;;14.54;55.27;100775.13;6207501;22;45039;-84
2022/06/01 03:42:12;;;;;;;;;3.33;3.33;;;;;14.59;55.10;100777.81;6232297;22;46656;-84
2022/06/01 03:47:23;;;;;;;;;3.00;3.00;;;;;14.57;55.04;100780.50;6234684;22;45426;-85
2022/06/01 03:49:50;;;;;;;;;4.33;3.00;;;;;14.57;55.24;100783.16;6230798;22;45177;-85
2022/06/01 03:52:15;;;;;;;;;4.00;4.00;;;;;14.43;55.24;100771.56;6231429;22;46795;-84
2022/06/01 03:54:41;;;;;;;;;4.00;4.00;;;;;14.49;55.25;100784.03;6232166;22;45268;-84
2022/06/01 03:57:11;;;;;;;;;4.00;4.00;;;;;14.51;55.72;100777.78;6204134;22;45189;-85
2022/06/01 03:59:37;;;;;;;;;7.33;4.33;;;;;14.50;55.31;100784.06;6204611;22;45474;-85
2022/06/01 04:02:05;;;;;;;;;5.67;4.33;;;;;14.58;55.26;100798.34;6230228;22;46591;-85
2022/06/01 04:04:31;;;;;;;;;3.33;3.33;;;;;14.49;55.13;100787.59;6204304;22;45270;-85
2022/06/01 04:06:57;;;;;;;;;4.33;4.33;;;;;14.47;55.49;100778.69;6232504;22;44783;-86
2022/06/01 04:09:22;;;;;;;;;3.33;3.33;;;;;14.54;55.42;100790.25;6231417;22;44799;-86
2022/06/01 04:11:51;;;;;;;;;4.00;4.00;;;;;14.57;55.25;100801.91;6205625;22;46633;-85
2022/06/01 04:14:19;;;;;;;;;4.00;4.00;;;;;14.56;54.97;100792.09;6232053;22;45698;-86
2022/06/01 04:16:45;;;;;;;;;5.00;4.00;;;;;14.57;55.17;100796.53;6232125;22;45244;-85
2022/06/01 04:19:11;;;;;;;;;4.00;4.00;;;;;14.49;55.23;100784.03;6233146;22;45224;-85
2022/06/01 04:21:39;;;;;;;;;3.67;3.67;;;;;14.58;55.07;100794.75;6231456;22;46620;-85
2022/06/01 04:24:12;;;;;;;;;3.67;3.67;;;;;14.60;55.56;100809.94;6231562;22;45359;-85
2022/06/01 04:26:37;;;;;;;;;5.00;5.00;;;;;14.63;55.35;100809.03;6231337;22;45267;-85
2022/06/01 04:29:03;;;;;;;;;8.00;5.33;;;;;14.73;54.96;100812.59;6205828;22;45448;-85
2022/06/01 04:31:28;;;;;;;;;7.67;5.00;;;;;14.57;54.62;100780.50;6231688;22;47254;-85
2022/06/01 04:33:54;;;;;;;;;4.00;4.00;;;;;14.72;54.79;100805.44;6231864;22;44812;-86
2022/06/01 04:36:19;;;;;;;;;4.00;4.00;;;;;14.69;55.27;100811.69;6234530;22;45291;-84
2022/06/01 04:38:45;;;;;;;;;4.33;4.33;;;;;14.67;55.36;100810.81;6234808;22;45450;-85
2022/06/01 04:41:10;;;;;;;;;5.00;5.00;;;;;14.72;55.48;100817.03;6207552;22;47490;-85
2022/06/01 04:43:36;;;;;;;;;4.67;3.00;;;;;14.72;55.23;100821.50;6232344;22;45359;-85
2022/06/01 04:46:02;;;;;;;;;4.00;4.00;;;;;14.64;55.65;100813.47;6231987;22;45391;-85
2022/06/01 04:48:30;;;;;;;;;3.33;2.67;;;;;14.70;55.55;100802.75;6230963;22;44852;-85
2022/06/01 04:50:58;;;;;;;;;4.00;4.00;;;;;14.99;55.71;100837.53;6232256;22;47192;-86
2022/06/01 04:53:26;;;;;;;;;5.67;5.67;;;;;14.96;55.43;100804.50;6232433;22;45299;-85
2022/06/01 04:55:52;;;;;;;;;6.00;5.67;;;;;15.27;54.71;100832.09;6232062;22;45226;-85
2022/06/01 04:58:17;;;;;;;;;4.00;4.00;;;;;15.40;54.53;100832.91;6230889;22;44710;-85
2022/06/01 05:00:44;;;;;;;;;5.33;3.67;;;;;15.53;54.26;100831.97;6234821;22;45351;-85
2022/06/01 05:03:12;;;;;;;;;6.00;6.00;;;;;15.73;54.05;100842.59;6233080;22;45193;-85
2022/06/01 05:05:39;;;;;;;;;7.00;7.00;;;;;15.88;53.47;100844.31;6207108;22;45384;-85
2022/06/01 05:08:06;;;;;;;;;5.33;5.33;;;;;15.92;53.04;100821.06;6233845;22;44901;-85
2022/06/01 05:10:35;;;;;;;;;7.00;7.00;;;;;16.09;53.08;100823.59;6232446;22;45344;-86
2022/06/01 05:13:01;;;;;;;;;6.00;5.00;;;;;15.94;52.82;100792.44;6232916;22;45685;-86
2022/06/01 05:15:27;;;;;;;;;5.00;4.33;;;;;16.28;52.48;100835.09;6233485;22;45090;-86
2022/06/01 05:17:56;;;;;;;;;8.00;7.00;;;;;16.34;51.86;100818.94;6232767;22;44698;-86
2022/06/01 05:20:24;;;;;;;;;4.00;4.00;;;;;16.38;51.49;100816.22;6231956;22;46995;-86
2022/06/01 05:22:50;;;;;;;;;6.33;4.00;;;;;16.60;51.69;100833.03;6176048;23;44651;-85
2022/06/01 05:25:16;;;;;;;;;5.00;5.00;;;;;16.77;51.22;100837.34;6176681;23;45237;-85
2022/06/01 05:27:41;;;;;;;;;4.00;4.00;;;;;16.92;51.20;100844.38;6201517;22;44726;-86
2022/06/01 05:30:22;;;;;;;;;6.00;6.00;;;;;16.96;50.83;100808.53;6202202;22;45422;-86
2022/06/01 05:32:48;;;;;;;;;5.00;5.00;;;;;17.15;50.59;100830.72;6201852;22;45413;-84
2022/06/01 05:35:16;;;;;;;;;8.67;8.00;;;;;17.19;50.41;100797.53;6200878;22;45315;-84
2022/06/01 05:37:45;;;;;;;;;6.00;6.00;;;;;17.32;49.85;100806.31;6200636;22;45269;-84
2022/06/01 05:40:11;;;;;;;;;6.67;6.67;;;;;17.65;49.51;100841.72;6198636;23;46681;-85
2022/06/01 05:42:36;;;;;;;;;7.00;7.00;;;;;17.70;49.16;100827.31;6198776;22;45534;-84
2022/06/01 05:45:06;;;;;;;;;6.00;6.00;;;;;17.77;48.78;100818.25;6199441;23;45378;-85
2022/06/01 05:47:33;;;;;;;;;5.00;5.00;;;;;17.87;48.56;100835.16;6198085;23;45755;-85
2022/06/01 05:50:01;;;;;;;;;5.00;5.00;;;;;17.88;48.64;100818.13;6197571;23;47046;-85
2022/06/01 05:52:26;;;;;;;;;8.33;7.00;;;;;17.95;48.31;100824.28;6196068;23;45307;-85
2022/06/01 05:54:52;;;;;;;;;5.67;5.67;;;;;18.06;48.51;100827.72;6198909;23;45340;-85
2022/06/01 05:57:18;;;;;;;;;5.33;4.00;;;;;18.06;48.00;100816.97;6196564;23;45238;-86
2022/06/01 05:59:53;;;;;;;;;7.00;5.00;;;;;18.04;47.50;100797.25;6174829;23;47301;-85
2022/06/01 06:02:18;;;;;;;;;6.00;6.00;;;;;18.31;47.44;100830.91;6199380;23;45392;-84
2022/06/01 06:04:50;;;;;;;;;5.00;5.00;;;;;18.18;47.30;100800.59;6198107;23;45205;-83
2022/06/01 06:07:16;;;;;;;;;6.00;6.00;;;;;18.40;47.26;100827.19;6173450;23;44733;-85
2022/06/01 06:10:20;;;;;;;;;6.33;4.33;;;;;18.64;46.99;100831.22;6198864;23;46924;-85
2022/06/01 06:12:59;;;;;;;;;5.00;5.00;;;;;18.63;47.02;100817.81;6197507;22;45429;-85
2022/06/01 06:15:27;;;;;;;;;4.00;4.00;;;;;18.78;46.33;100820.22;6196166;23;45336;-85
2022/06/01 06:17:54;;;;;;;;;5.67;5.00;;;;;19.01;45.99;100836.00;6171084;23;45524;-87
2022/06/01 06:20:20;;;;;;;;;7.67;6.00;;;;;18.97;45.52;100808.22;6196392;23;45791;-84
2022/06/01 06:22:54;;;;;;;;;5.67;5.67;;;;;19.11;45.32;100823.22;6202659;22;45383;-84
2022/06/01 06:25:19;;;;;;;;;6.00;5.00;;;;;18.94;45.26;100808.25;6203657;22;45553;-84
2022/06/01 06:27:45;;;;;;;;;4.67;4.67;;;;;19.11;45.07;100832.19;6229766;22;44869;-86
2022/06/01 06:30:15;;;;;;;;;6.00;5.67;;;;;19.10;45.21;100838.50;6229848;22;45409;-85
2022/06/01 06:32:40;;;;;;;;;5.67;5.67;;;;;18.83;45.05;100799.50;6232313;22;45220;-85
2022/06/01 06:35:06;;;;;;;;;5.00;5.00;;;;;19.02;45.02;100842.25;6229557;22;44739;-84
2022/06/01 06:37:32;;;;;;;;;5.67;4.33;;;;;18.90;45.51;100800.25;6231883;22;45192;-84
2022/06/01 06:40:09;;;;;;;;;5.00;5.00;;;;;19.16;44.51;100824.00;6231164;22;45446;-84
2022/06/01 06:42:38;;;;;;;;;7.00;6.00;;;;;19.23;44.14;100839.16;6233946;22;45382;-84
2022/06/01 06:45:11;;;;;;;;;2.00;2.00;;;;;19.18;44.28;100832.97;6230175;22;45289;-83
2022/06/01 06:47:41;;;;;;;;;6.00;4.00;;;;;19.15;44.66;100841.13;6227737;22;45404;-85
2022/06/01 06:50:25;;;;;;;;;6.00;6.00;;;;;19.38;44.36;100830.72;6227706;22;46955;-87
2022/06/01 06:52:53;;;;;;;;;6.00;6.00;;;;;19.46;44.04;100832.41;6204431;22;45582;-87
2022/06/01 06:55:24;;;;;;;;;8.00;6.00;;;;;19.48;43.62;100838.66;6229520;22;45471;-87
2022/06/01 06:57:53;;;;;;;;;5.67;5.67;;;;;19.15;44.31;100833.03;6229966;22;45264;-85
2022/06/01 07:00:19;;;;;;;;;6.00;5.00;;;;;19.22;44.73;100825.69;6231513;22;47088;-85
2022/06/01 07:02:56;;;;;;;;;4.00;4.00;;;;;19.45;44.22;100836.00;6231779;22;45363;-84
2022/06/01 07:11:39;;;;;;;;;6.33;6.00;;;;;19.28;43.95;100829.16;6231503;22;45444;-85
2022/06/01 07:14:06;;;;;;;;;8.00;8.00;;;;;19.12;43.91;100833.97;6204636;22;44774;-84
2022/06/01 07:16:40;;;;;;;;;5.33;3.33;;;;;19.25;43.99;100823.84;6229884;22;44842;-87
2022/06/01 07:19:08;;;;;;;;;6.00;5.67;;;;;19.62;43.71;100849.16;6206428;22;45356;-86
2022/06/01 07:21:45;;;;;;;;;9.00;8.00;;;;;19.55;43.96;100833.09;6203000;22;45378;-85
2022/06/01 07:24:52;;;;;;;;;7.00;6.00;;;;;19.89;43.66;100847.66;6231135;22;45282;-86
2022/06/01 07:27:41;;;;;;;;;;;;;;;;;;;;;
2022/06/01 07:30:22;;;;;;;;;8.33;8.33;;;;;19.94;43.06;100834.97;6112833;23;65097;-86
2022/06/01 07:33:24;;;;;;;;;5.00;5.00;;;;;19.99;43.23;100860.91;6062938;23;45390;-86
2022/06/01 07:36:02;;;;;;;;;6.00;6.00;;;;;19.89;43.10;100831.47;6108710;23;45280;-85
2022/06/01 07:45:30;;;;;;;;;3.67;3.67;;;;;20.32;42.81;100842.16;5994695;23;45297;-86
2022/06/01 07:47:55;;;;;;;;;5.00;5.00;;;;;20.32;42.22;100822.31;5995403;23;45408;-88
2022/06/01 07:50:34;;;;;;;;;4.67;4.67;;;;;20.26;42.09;100831.50;5995601;23;44802;-88
2022/06/01 07:53:31;;;;;;;;;5.67;4.00;;;;;20.29;41.88;100863.81;5973513;23;44761;-87
2022/06/01 08:09:25;;;;;;;;;4.00;4.00;;;;;20.25;43.16;100851.31;6293376;22;45013;-86
2022/06/01 08:14:59;;;;;;;;;3.67;3.67;;;;;20.12;43.23;100812.94;6294207;22;45475;-85
2022/06/01 08:17:51;;;;;;;;;;;;;;;;;;;;;
2022/06/01 08:24:19;;;;;;;;;4.33;3.67;;;;;20.45;42.52;100852.66;6284429;22;45415;-86
2022/06/01 08:27:27;;;;;;;;;3.67;3.67;;;;;20.67;42.52;100855.72;6264208;22;45874;-87
2022/06/01 08:33:45;;;;;;;;;;;;;;;;;;;;;
2022/06/01 08:36:32;;;;;;;;;3.00;3.00;;;;;21.12;41.39;100848.19;6292013;22;67561;-88
2022/06/01 08:39:00;;;;;;;;;3.00;3.00;;;;;21.02;41.13;100849.34;6267644;22;44833;-86
2022/06/01 08:41:35;;;;;;;;;3.67;3.67;;;;;20.91;41.48;100827.16;6265163;22;45637;-87
2022/06/01 08:47:49;;;;;;;;;3.00;3.00;;;;;21.36;41.25;100843.88;6257483;22;45359;-86
2022/06/01 08:50:55;;;;;;;;;3.67;3.67;;;;;21.48;41.17;100839.09;6232300;22;45483;-84
2022/06/01 08:53:25;;;;;;;;;3.67;3.67;;;;;21.39;40.85;100815.88;6255382;22;46603;-86
2022/06/01 08:56:07;;;;;;;;;;;;;;;;;;;;;
2022/06/01 09:12:07;;;;;;;;;2.00;2.00;;;;;21.79;39.27;100847.16;6230112;22;44709;-86
2022/06/01 09:14:52;;;;;;;;;1.67;1.67;;;;;21.70;37.98;100826.69;6230656;22;45441;-85
2022/06/01 09:17:47;;;;;;;;;;;;;;;;;;;;;
2022/06/01 09:24:20;;;;;;;;;2.00;2.00;;;;;21.76;38.70;100848.16;6295086;22;45459;-85
2022/06/01 09:30:31;;;;;;;;;;;;;;;;;;;;;
2022/06/01 09:34:06;;;;;;;;;;;;;;;;;;;;;
2022/06/01 09:45:24;;;;;;;;;2.00;2.00;;;;;22.74;36.77;100859.47;6231966;22;45761;-86
2022/06/01 09:48:51;;;;;;;;;4.00;4.00;;;;;22.60;36.20;100850.91;6231694;22;45397;-86
2022/06/01 09:51:33;;;;;;;;;4.00;4.00;;;;;22.45;37.15;100853.22;6081423;23;45523;-85
2022/06/01 09:54:26;;;;;;;;;2.67;2.00;;;;;22.39;36.50;100856.13;6107707;23;45750;-86
2022/06/01 09:57:22;;;;;;;;;3.00;3.00;;;;;21.75;37.13;100819.31;6086189;23;44850;-86
2022/06/01 10:12:04;;;;;;;;;;;;;;;;;;;;;
2022/06/01 10:15:21;;;;;;;;;;;;;;;;;;;;;
2022/06/01 10:18:53;;;;;;;;;3.00;3.00;;;;;22.20;37.29;100852.19;6169646;22;75198;-85
2022/06/01 10:29:23;;;;;;;;;2.00;2.00;;;;;21.96;38.18;100838.53;6022739;23;45403;-87
2022/06/01 10:36:26;;;;;;;;;4.00;4.00;;;;;21.86;36.85;100837.06;6034912;23;45035;-86
2022/06/01 10:46:20;;;;;;;;;;;;;;;;;;;;;
2022/06/01 10:49:38;;;;;;;;;3.00;3.00;;;;;21.79;37.29;100833.63;6070103;23;44950;-87
2022/06/01 12:02:41;;;;;;;;;3.00;3.00;;;;;22.24;34.35;100802.44;6231177;22;46068;-84
2022/06/01 12:06:40;;;;;;;;;2.00;2.00;;;;;22.04;34.73;100793.13;6285634;22;46177;-85
2022/06/01 12:09:55;;;;;;;;;;;;;;;;;;;;;
2022/06/01 12:29:51;;;;;;;;;2.00;2.00;;;;;21.91;33.75;100792.63;6141644;23;45396;-85
2022/06/01 12:33:03;;;;;;;;;2.33;2.33;;;;;22.04;33.71;100797.66;6141417;23;45233;-86
2022/06/01 13:18:12;;;;;;;;;2.00;2.00;;;;;22.37;32.55;100780.28;6207505;22;46667;-86
2022/06/01 13:38:11;;;;;;;;;4.00;2.00;;;;;22.76;32.10;100789.78;6140378;23;45328;-85
2022/06/01 15:51:53;;;;;;;;;0.00;0.00;;;;;46.14;11.69;100784.94;6048809;23;44804;-87
2022/06/01 15:55:15;;;;;;;;;;;;;;;;;;;;;
2022/06/01 15:57:44;;;;;;;;;2.00;2.00;;;;;47.27;10.35;100773.78;6029584;23;74496;-88
2022/06/01 16:00:47;;;;;;;;;;;;;;;;;;;;;
2022/06/01 16:07:11;;;;;;;;;2.67;2.67;;;;;47.28;10.47;100752.13;6076040;23;45315;-86
2022/06/01 16:09:48;;;;;;;;;1.00;1.00;;;;;47.67;10.05;100778.44;6131917;23;45487;-86
2022/06/01 16:12:26;;;;;;;;;0.00;0.00;;;;;47.96;9.09;100760.16;6173276;22;45347;-86
2022/06/01 16:14:55;;;;;;;;;1.00;0.00;;;;;47.83;8.41;100755.38;6257949;22;45388;-86
2022/06/01 16:17:49;;;;;;;;;0.00;0.00;;;;;46.99;9.51;100748.69;6228630;22;44946;-86
2022/06/01 16:20:41;;;;;;;;;0.67;0.67;;;;;46.84;9.72;100760.16;6257162;22;45493;-86
2022/06/01 16:23:16;;;;;;;;;1.00;1.00;;;;;46.29;9.78;100771.53;6260645;22;44808;-85
2022/06/01 16:25:47;;;;;;;;;0.00;0.00;;;;;46.73;10.13;100757.13;6232719;22;45534;-86
2022/06/01 16:28:27;;;;;;;;;1.00;1.00;;;;;47.71;9.39;100768.47;6234729;22;44844;-85
2022/06/01 16:31:13;;;;;;;;;1.00;1.00;;;;;47.77;10.09;100742.19;6236957;22;45488;-87
2022/06/01 16:34:01;;;;;;;;;1.00;0.67;;;;;47.66;8.00;100726.00;6235339;22;45342;-86
2022/06/01 16:36:30;;;;;;;;;0.00;0.00;;;;;46.95;8.94;100741.75;6263456;22;45417;-86
2022/06/01 16:39:37;;;;;;;;;2.00;1.00;;;;;45.77;9.15;100738.50;6233025;22;45386;-86
2022/06/01 16:42:14;;;;;;;;;0.67;0.67;;;;;45.98;9.47;100735.53;6137460;23;46916;-86
2022/06/01 16:44:41;;;;;;;;;0.67;0.67;;;;;46.50;9.85;100756.47;6138892;23;45389;-86
2022/06/01 16:47:13;;;;;;;;;1.33;1.33;;;;;47.12;9.85;100752.56;6138688;23;44840;-86
2022/06/01 16:50:08;;;;;;;;;1.00;1.00;;;;;47.76;9.29;100748.94;6139688;23;45514;-86
2022/06/01 16:53:20;;;;;;;;;0.33;0.33;;;;;47.71;8.77;100761.97;6137129;23;45663;-85
2022/06/01 16:55:49;;;;;;;;;2.00;2.00;;;;;47.02;9.54;100719.22;6135856;23;45351;-87
2022/06/01 16:58:17;;;;;;;;;1.00;1.00;;;;;47.35;9.43;100729.56;6131122;23;45486;-86
2022/06/01 17:01:07;;;;;;;;;1.00;1.00;;;;;46.43;8.92;100751.91;6138595;23;44826;-87
2022/06/01 17:03:35;;;;;;;;;0.00;0.00;;;;;44.15;9.60;100726.22;6140474;23;46876;-87
2022/06/01 17:06:14;;;;;;;;;0.00;0.00;;;;;41.58;10.87;100743.81;6166154;23;45414;-86
2022/06/01 17:08:42;;;;;;;;;1.00;1.00;;;;;38.57;12.38;100741.84;6165679;23;44791;-86
2022/06/01 17:11:11;;;;;;;;;1.67;1.00;;;;;36.39;13.23;100769.88;6214492;22;44810;-86
2022/06/01 17:13:39;;;;;;;;;0.00;0.00;;;;;34.61;14.92;100764.69;6200717;22;46097;-87
2022/06/01 17:16:08;;;;;;;;;2.00;2.00;;;;;33.09;16.24;100775.44;6200631;22;45303;-86
2022/06/01 17:19:22;;;;;;;;;2.00;2.00;;;;;31.97;16.78;100775.78;6200655;22;44789;-87
2022/06/01 17:21:50;;;;;;;;;0.67;0.67;;;;;30.76;17.98;100785.41;6225277;22;45682;-86
2022/06/01 17:24:15;;;;;;;;;2.00;2.00;;;;;29.91;19.53;100791.13;6201392;22;47973;-86
2022/06/01 17:26:41;;;;;;;;;1.00;1.00;;;;;29.06;19.85;100754.53;6227502;22;45351;-86
2022/06/01 17:29:08;;;;;;;;;3.00;3.00;;;;;28.70;20.29;100802.38;6199836;22;45415;-87
2022/06/01 17:32:20;;;;;;;;;4.00;2.33;;;;;28.22;20.39;100793.38;6200817;22;45368;-86
2022/06/01 17:34:46;;;;;;;;;1.33;1.33;;;;;27.63;20.89;100765.78;6200413;22;46255;-87
2022/06/01 17:37:30;;;;;;;;;2.00;2.00;;;;;27.41;22.33;100798.88;6230801;22;45274;-86
2022/06/01 17:39:56;;;;;;;;;2.33;2.33;;;;;27.02;22.76;100794.59;6204506;22;44772;-85
2022/06/01 17:42:21;;;;;;;;;3.33;2.33;;;;;26.74;22.33;100801.50;6257736;22;45294;-86
2022/06/01 17:44:50;;;;;;;;;4.33;2.67;;;;;26.54;21.75;100808.88;6232476;22;46776;-86
2022/06/01 17:47:17;;;;;;;;;3.00;3.00;;;;;26.35;22.41;100797.13;6258679;22;45351;-86
2022/06/01 17:49:43;;;;;;;;;4.00;4.00;;;;;26.14;22.66;100797.25;6231088;22;44809;-86
2022/06/01 17:52:13;;;;;;;;;3.00;3.00;;;;;26.15;22.60;100806.31;6258771;22;45460;-86
2022/06/01 17:54:38;;;;;;;;;2.00;2.00;;;;;25.96;22.62;100800.91;6232330;22;45560;-85
2022/06/01 17:57:04;;;;;;;;;2.33;2.33;;;;;25.97;22.83;100827.19;6257431;22;45333;-86
2022/06/01 17:59:31;;;;;;;;;2.33;2.33;;;;;25.92;23.21;100830.13;6232048;22;45268;-86
2022/06/01 18:01:58;;;;;;;;;3.00;3.00;;;;;25.65;23.49;100809.63;6259627;22;45256;-86
2022/06/01 18:04:23;;;;;;;;;3.67;3.67;;;;;25.64;23.64;100822.38;6258655;22;46771;-86
2022/06/01 18:06:51;;;;;;;;;3.00;3.00;;;;;25.45;24.38;100826.91;6234537;22;44800;-86
2022/06/01 18:09:20;;;;;;;;;2.00;2.00;;;;;25.28;23.90;100834.03;6259659;22;44698;-86
2022/06/01 18:11:46;;;;;;;;;2.67;2.67;;;;;25.03;24.99;100836.06;6234381;22;45355;-86
2022/06/01 18:14:12;;;;;;;;;3.00;3.00;;;;;24.93;24.47;100836.47;6260897;22;45008;-86
2022/06/01 18:16:42;;;;;;;;;5.00;4.67;;;;;24.82;24.96;100833.31;6233196;22;45301;-86
2022/06/01 18:19:20;;;;;;;;;4.67;3.00;;;;;24.61;24.87;100823.41;6261867;22;44820;-86
2022/06/01 18:21:48;;;;;;;;;3.67;3.67;;;;;24.57;25.33;100838.06;6259074;22;45342;-86
2022/06/01 18:24:22;;;;;;;;;1.67;1.67;;;;;24.46;25.51;100836.66;6235297;22;45251;-85
2022/06/01 18:26:53;;;;;;;;;5.00;5.00;;;;;24.43;25.39;100842.22;6234395;22;45462;-86
2022/06/01 18:29:30;;;;;;;;;3.00;3.00;;;;;24.32;25.87;100839.97;6234426;22;45326;-86
2022/06/01 18:31:56;;;;;;;;;4.00;4.00;;;;;24.09;28.01;100840.88;6260335;22;45416;-86
2022/06/01 18:34:21;;;;;;;;;3.33;3.33;;;;;23.86;28.35;100835.50;6258782;22;47805;-85
2022/06/01 18:36:50;;;;;;;;;4.00;4.00;;;;;23.57;28.91;100818.47;6261547;22;45259;-85
2022/06/01 18:39:15;;;;;;;;;4.00;4.00;;;;;23.61;27.67;100852.69;6234509;22;45358;-86
2022/06/01 18:41:49;;;;;;;;;2.33;2.33;;;;;23.57;28.53;100848.34;6236247;22;45519;-85
2022/06/01 18:44:17;;;;;;;;;3.00;3.00;;;;;23.34;28.78;100824.78;6202566;22;46887;-85
2022/06/01 18:46:44;;;;;;;;;4.00;4.00;;;;;23.31;28.54;100842.09;6228880;22;45318;-85